createdAt,value
2018-06-25T00:01:48.872Z,57.59
2018-06-25T00:04:14.876Z,57.06
2018-06-25T00:06:40.863Z,56.92
2018-06-25T00:09:06.814Z,57.39
2018-06-25T00:11:32.830Z,57.55
2018-06-25T00:13:58.787Z,57.57
2018-06-25T00:16:24.772Z,56.51
2018-06-25T00:18:50.816Z,56.63
2018-06-25T00:21:16.788Z,56.69
2018-06-25T00:23:42.776Z,56.84
2018-06-25T00:26:08.763Z,56.64
2018-06-25T00:28:34.704Z,57.48
2018-06-25T00:31:00.678Z,56.25
2018-06-25T00:33:26.636Z,57.22
2018-06-25T00:35:52.601Z,56.94
2018-06-25T00:38:18.570Z,56.76
2018-06-25T00:40:44.564Z,56.59
2018-06-25T00:43:10.547Z,57.08
2018-06-25T00:45:36.510Z,56.75
2018-06-25T00:48:02.549Z,57.22
2018-06-25T00:50:28.519Z,56.51
2018-06-25T00:52:54.495Z,56.56
2018-06-25T00:55:20.491Z,56.59
2018-06-25T00:57:46.461Z,57.17
2018-06-25T01:00:12.460Z,57.33
2018-06-25T01:02:38.458Z,57.12
2018-06-25T01:05:04.417Z,56.57
2018-06-25T01:07:30.381Z,56.99
2018-06-25T01:09:56.346Z,56.88
2018-06-25T01:12:22.302Z,57.00
2018-06-25T01:14:48.278Z,56.96
2018-06-25T01:17:14.256Z,56.69
2018-06-25T01:19:40.237Z,57.50
2018-06-25T01:22:06.208Z,56.84
2018-06-25T01:24:32.183Z,56.90
2018-06-25T01:26:58.150Z,57.81
2018-06-25T01:29:24.121Z,57.10
2018-06-25T01:31:50.151Z,57.51
2018-06-25T01:34:16.111Z,57.05
2018-06-25T01:36:42.065Z,56.96
2018-06-25T01:39:08.065Z,56.73
2018-06-25T01:41:34.028Z,57.25
2018-06-25T01:44:00.005Z,57.60
2018-06-25T01:46:25.976Z,56.46
2018-06-25T01:48:51.954Z,56.93
2018-06-25T01:51:17.941Z,56.50
2018-06-25T01:53:43.926Z,57.76
2018-06-25T01:56:09.906Z,58.04
2018-06-25T01:58:35.871Z,57.07
2018-06-25T02:01:01.821Z,56.76
2018-06-25T02:03:29.831Z,57.24
2018-06-25T02:05:55.809Z,57.70
2018-06-25T02:08:21.762Z,57.12
2018-06-25T02:10:47.736Z,57.28
2018-06-25T02:13:13.716Z,57.38
2018-06-25T02:15:39.764Z,57.53
2018-06-25T02:18:05.910Z,57.34
2018-06-25T02:20:31.882Z,58.13
2018-06-25T02:22:57.845Z,58.00
2018-06-25T02:25:23.811Z,58.66
2018-06-25T02:27:49.793Z,57.93
2018-06-25T02:30:15.779Z,57.80
2018-06-25T02:32:41.739Z,57.53
2018-06-25T02:37:41.211Z,57.43
2018-06-25T02:40:07.219Z,57.67
2018-06-25T02:42:33.201Z,57.71
2018-06-25T02:44:59.157Z,58.52
2018-06-25T02:47:25.134Z,58.22
2018-06-25T02:49:51.130Z,58.32
2018-06-25T02:52:17.127Z,58.97
2018-06-25T02:54:43.134Z,58.35
2018-06-25T02:57:09.151Z,58.08
2018-06-25T02:59:35.143Z,57.77
2018-06-25T03:02:01.140Z,58.49
2018-06-25T03:04:27.126Z,58.49
2018-06-25T03:06:54.172Z,58.38
2018-06-25T03:09:20.236Z,58.69
2018-06-25T03:11:46.253Z,57.89
2018-06-25T03:14:12.262Z,57.63
2018-06-25T03:16:38.284Z,58.62
2018-06-25T03:19:04.237Z,58.83
2018-06-25T03:21:30.217Z,57.91
2018-06-25T03:23:56.216Z,58.07
2018-06-25T03:26:22.205Z,58.50
2018-06-25T03:28:48.182Z,58.44
2018-06-25T03:31:14.158Z,57.67
2018-06-25T03:33:40.161Z,58.15
2018-06-25T03:36:06.129Z,58.19
2018-06-25T03:38:32.172Z,58.84
2018-06-25T03:40:58.096Z,58.14
2018-06-25T03:45:59.636Z,59.15
2018-06-25T03:48:25.655Z,58.31
2018-06-25T03:50:51.625Z,58.76
2018-06-25T03:53:18.646Z,58.02
2018-06-25T03:55:44.609Z,58.00
2018-06-25T03:58:10.589Z,58.21
2018-06-25T04:00:36.567Z,58.08
2018-06-25T04:03:02.664Z,58.70
2018-06-25T04:05:28.620Z,59.03
2018-06-25T04:07:54.622Z,58.42
2018-06-25T04:10:20.653Z,58.64
2018-06-25T04:12:46.642Z,58.41
2018-06-25T04:15:12.744Z,58.69
2018-06-25T04:17:38.723Z,57.84
2018-06-25T04:20:04.718Z,58.75
2018-06-25T04:22:30.722Z,58.73
2018-06-25T04:24:56.681Z,58.31
2018-06-25T04:27:22.652Z,58.27
2018-06-25T04:29:49.251Z,57.75
2018-06-25T04:32:15.224Z,57.81
2018-06-25T04:34:41.200Z,57.92
2018-06-25T04:37:09.188Z,57.96
2018-06-25T04:39:35.187Z,58.24
2018-06-25T04:42:01.178Z,58.08
2018-06-25T04:44:27.191Z,58.07
2018-06-25T04:46:53.205Z,58.03
2018-06-25T04:49:19.159Z,57.82
2018-06-25T04:51:45.133Z,57.77
2018-06-25T04:54:11.098Z,58.56
2018-06-25T04:56:37.076Z,57.80
2018-06-25T04:59:03.200Z,58.72
2018-06-25T05:01:29.172Z,58.71
2018-06-25T05:03:55.179Z,57.96
2018-06-25T05:06:21.179Z,58.01
2018-06-25T05:08:47.216Z,57.87
2018-06-25T05:11:13.121Z,58.64
2018-06-25T05:13:39.082Z,58.51
2018-06-25T05:16:05.061Z,57.67
2018-06-25T05:18:31.048Z,58.92
2018-06-25T05:20:57.041Z,58.25
2018-06-25T05:23:23.006Z,58.10
2018-06-25T05:25:49.001Z,58.30
2018-06-25T05:28:14.971Z,57.97
2018-06-25T05:30:40.977Z,58.93
2018-06-25T05:33:06.934Z,58.49
2018-06-25T05:35:36.871Z,58.19
2018-06-25T05:38:02.951Z,57.74
2018-06-25T05:40:28.927Z,58.49
2018-06-25T05:42:54.913Z,57.58
2018-06-25T05:45:20.904Z,57.84
2018-06-25T05:47:46.869Z,57.87
2018-06-25T05:50:12.851Z,58.10
2018-06-25T05:52:38.900Z,58.61
2018-06-25T05:55:04.879Z,57.92
2018-06-25T05:57:30.831Z,58.46
2018-06-25T05:59:56.799Z,58.19
2018-06-25T06:02:22.752Z,57.96
2018-06-25T06:04:48.742Z,58.34
2018-06-25T06:07:14.714Z,58.67
2018-06-25T06:09:40.761Z,57.94
2018-06-25T06:12:06.745Z,58.23
2018-06-25T06:14:32.735Z,58.18
2018-06-25T06:16:58.783Z,57.77
2018-06-25T06:19:24.781Z,58.69
2018-06-25T06:21:50.839Z,58.92
2018-06-25T06:24:16.797Z,58.17
2018-06-25T06:26:42.776Z,57.96
2018-06-25T06:29:08.773Z,58.61
2018-06-25T06:31:34.749Z,58.41
2018-06-25T06:34:00.809Z,57.77
2018-06-25T06:36:26.813Z,58.37
2018-06-25T06:38:52.788Z,58.17
2018-06-25T06:41:18.837Z,58.05
2018-06-25T06:43:44.846Z,58.81
2018-06-25T06:46:10.829Z,58.45
2018-06-25T06:48:36.813Z,58.09
2018-06-25T06:51:02.811Z,58.32
2018-06-25T06:53:28.788Z,58.92
2018-06-25T06:55:54.762Z,57.81
2018-06-25T06:58:22.877Z,59.21
2018-06-25T07:00:48.835Z,57.68
2018-06-25T07:03:16.912Z,58.23
2018-06-25T07:05:46.524Z,58.32
2018-06-25T07:08:14.616Z,58.22
2018-06-25T07:10:40.633Z,58.18
2018-06-25T07:13:06.613Z,58.25
2018-06-25T07:15:32.587Z,58.67
2018-06-25T07:17:59.647Z,57.87
2018-06-25T07:20:26.692Z,58.00
2018-06-25T07:22:52.671Z,57.76
2018-06-25T07:25:18.648Z,58.06
2018-06-25T07:27:44.633Z,58.32
2018-06-25T07:30:10.621Z,57.78
2018-06-25T07:32:36.592Z,57.36
2018-06-25T07:35:02.579Z,57.60
2018-06-25T07:37:28.565Z,57.24
2018-06-25T07:39:54.563Z,56.99
2018-06-25T07:42:20.559Z,57.42
2018-06-25T07:44:46.532Z,57.07
2018-06-25T07:49:44.566Z,57.38
2018-06-25T07:52:10.554Z,56.83
2018-06-25T07:54:36.531Z,57.59
2018-06-25T07:57:02.507Z,57.58
2018-06-25T07:59:28.462Z,56.60
2018-06-25T08:01:54.468Z,56.37
2018-06-25T08:04:21.497Z,57.51
2018-06-25T08:06:47.463Z,57.66
2018-06-25T08:09:13.442Z,57.05
2018-06-25T08:11:39.420Z,57.45
2018-06-25T08:14:05.432Z,56.74
2018-06-25T08:16:31.432Z,56.94
2018-06-25T08:18:57.395Z,57.73
2018-06-25T08:21:23.371Z,57.61
2018-06-25T08:23:49.352Z,56.81
2018-06-25T08:26:15.318Z,56.93
2018-06-25T08:28:41.293Z,56.73
2018-06-25T08:31:07.266Z,56.80
2018-06-25T08:33:33.253Z,57.26
2018-06-25T08:35:59.215Z,57.48
2018-06-25T08:38:25.171Z,57.42
2018-06-25T08:40:51.226Z,57.49
2018-06-25T08:43:17.183Z,57.67
2018-06-25T08:45:43.145Z,56.83
2018-06-25T08:48:09.131Z,57.38
2018-06-25T08:50:35.100Z,57.76
2018-06-25T08:53:01.064Z,58.01
2018-06-25T08:55:27.056Z,57.60
2018-06-25T08:57:53.050Z,57.79
2018-06-25T09:00:19.061Z,57.52
2018-06-25T09:02:45.021Z,57.30
2018-06-25T09:05:10.996Z,57.38
2018-06-25T09:07:40.398Z,58.49
2018-06-25T09:10:06.373Z,58.43
2018-06-25T09:12:32.333Z,58.40
2018-06-25T09:14:58.301Z,58.52
2018-06-25T09:17:24.256Z,58.47
2018-06-25T09:19:50.244Z,58.46
2018-06-25T09:22:16.221Z,57.71
2018-06-25T09:24:42.181Z,57.68
2018-06-25T09:27:08.162Z,58.60
2018-06-25T09:29:34.130Z,57.76
2018-06-25T09:32:00.112Z,57.53
2018-06-25T09:34:26.092Z,58.23
2018-06-25T09:36:53.055Z,58.51
2018-06-25T09:39:19.019Z,57.53
2018-06-25T09:41:45.221Z,58.17
2018-06-25T09:44:10.991Z,57.58
2018-06-25T09:46:36.960Z,58.35
2018-06-25T09:49:02.936Z,58.16
2018-06-25T09:51:28.935Z,57.51
2018-06-25T09:53:54.889Z,57.29
2018-06-25T09:56:20.897Z,56.74
2018-06-25T09:58:46.879Z,57.12
2018-06-25T10:01:12.841Z,57.18
2018-06-25T10:03:38.812Z,58.09
2018-06-25T10:06:04.808Z,57.99
2018-06-25T10:08:30.774Z,58.03
2018-06-25T10:10:56.796Z,58.00
2018-06-25T10:13:22.771Z,58.30
2018-06-25T10:15:52.976Z,57.62
2018-06-25T10:18:18.954Z,58.46
2018-06-25T10:20:44.937Z,57.52
2018-06-25T10:23:10.927Z,58.35
2018-06-25T10:25:36.996Z,57.91
2018-06-25T10:28:02.954Z,58.15
2018-06-25T10:30:28.918Z,58.11
2018-06-25T10:32:54.921Z,57.95
2018-06-25T10:35:20.918Z,58.08
2018-06-25T10:37:46.907Z,57.79
2018-06-25T10:40:12.866Z,57.18
2018-06-25T10:42:38.979Z,57.19
2018-06-25T10:45:04.919Z,57.86
2018-06-25T10:47:30.889Z,57.81
2018-06-25T10:49:56.864Z,57.82
2018-06-25T10:52:22.829Z,57.80
2018-06-25T10:54:48.828Z,57.34
2018-06-25T10:57:14.838Z,58.08
2018-06-25T10:59:41.033Z,57.81
2018-06-25T11:02:06.821Z,58.06
2018-06-25T11:04:32.849Z,57.58
2018-06-25T11:06:58.842Z,57.55
2018-06-25T11:09:24.828Z,57.92
2018-06-25T11:11:50.817Z,57.53
2018-06-25T11:14:16.803Z,57.39
2018-06-25T11:16:42.765Z,58.29
2018-06-25T11:19:08.830Z,57.70
2018-06-25T11:21:34.780Z,57.69
2018-06-25T11:24:00.776Z,57.74
2018-06-25T11:26:26.756Z,57.56
2018-06-25T11:28:52.709Z,56.84
2018-06-25T11:31:18.674Z,57.38
2018-06-25T11:33:44.688Z,57.19
2018-06-25T11:36:10.697Z,57.23
2018-06-25T11:38:36.672Z,57.41
2018-06-25T11:41:02.652Z,57.25
2018-06-25T11:43:28.601Z,57.51
2018-06-25T11:45:54.607Z,58.09
2018-06-25T11:48:20.583Z,58.17
2018-06-25T11:50:46.548Z,57.51
2018-06-25T11:53:12.544Z,57.27
2018-06-25T11:55:38.494Z,57.66
2018-06-25T11:58:04.455Z,58.02
2018-06-25T12:00:30.423Z,57.44
2018-06-25T12:02:56.480Z,57.97
2018-06-25T12:05:22.373Z,58.17
2018-06-25T12:07:48.354Z,57.78
2018-06-25T12:10:14.337Z,57.29
2018-06-25T12:12:40.306Z,57.69
2018-06-25T12:15:06.297Z,57.63
2018-06-25T12:17:32.324Z,56.94
2018-06-25T12:19:58.265Z,57.07
2018-06-25T12:22:24.262Z,57.34
2018-06-25T12:24:50.243Z,57.37
2018-06-25T12:27:16.192Z,57.79
2018-06-25T12:29:42.176Z,57.84
2018-06-25T12:32:08.146Z,58.09
2018-06-25T12:34:34.144Z,57.20
2018-06-25T12:37:00.115Z,57.48
2018-06-25T12:39:26.079Z,56.29
2018-06-25T12:41:52.039Z,57.17
2018-06-25T12:44:18.009Z,56.91
2018-06-25T12:46:44.031Z,57.08
2018-06-25T12:49:10.975Z,56.82
2018-06-25T12:51:36.965Z,58.05
2018-06-25T12:54:02.930Z,56.99
2018-06-25T12:56:28.897Z,57.74
2018-06-25T12:58:54.850Z,57.44
2018-06-25T13:01:20.865Z,57.46
2018-06-25T13:03:46.815Z,56.96
2018-06-25T13:06:12.823Z,57.89
2018-06-25T13:08:38.807Z,57.04
2018-06-25T13:11:04.783Z,57.83
2018-06-25T13:13:30.791Z,56.83
2018-06-25T13:15:56.764Z,57.93
2018-06-25T13:18:22.762Z,57.89
2018-06-25T13:20:48.704Z,57.58
2018-06-25T13:23:14.688Z,57.26
2018-06-25T13:25:40.701Z,57.44
2018-06-25T13:28:06.660Z,57.23
2018-06-25T13:30:32.643Z,57.08
2018-06-25T13:32:58.616Z,56.87
2018-06-25T13:35:24.608Z,57.65
2018-06-25T13:37:50.592Z,57.13
2018-06-25T13:40:16.582Z,57.08
2018-06-25T13:42:42.552Z,56.93
2018-06-25T13:45:08.508Z,57.63
2018-06-25T13:47:34.476Z,56.58
2018-06-25T13:50:00.468Z,56.67
2018-06-25T13:52:26.443Z,56.70
2018-06-25T13:54:52.438Z,57.51
2018-06-25T13:57:18.418Z,57.01
2018-06-25T13:59:44.381Z,58.00
2018-06-25T14:02:10.369Z,57.36
2018-06-25T14:04:36.378Z,56.97
2018-06-25T14:07:03.340Z,56.64
2018-06-25T14:09:29.312Z,57.58
2018-06-25T14:11:55.310Z,57.11
2018-06-25T14:14:21.280Z,57.50
2018-06-25T14:16:47.360Z,57.58
2018-06-25T14:19:13.283Z,57.25
2018-06-25T14:21:39.272Z,56.75
2018-06-25T14:24:05.246Z,56.75
2018-06-25T14:26:31.217Z,57.73
2018-06-25T14:28:57.179Z,57.49
2018-06-25T14:31:23.147Z,56.58
2018-06-25T14:33:49.138Z,56.44
2018-06-25T14:36:15.090Z,57.57
2018-06-25T14:38:41.085Z,57.43
2018-06-25T14:41:07.058Z,57.05
2018-06-25T14:43:33.031Z,57.20
2018-06-25T14:45:59.048Z,57.49
2018-06-25T14:48:25.123Z,56.99
2018-06-25T14:50:51.149Z,56.62
2018-06-25T14:53:17.107Z,57.20
2018-06-25T14:55:43.076Z,56.52
2018-06-25T14:58:09.078Z,56.84
2018-06-25T15:00:35.089Z,56.32
2018-06-25T15:03:01.063Z,56.20
2018-06-25T15:05:27.027Z,56.72
2018-06-25T15:07:53.013Z,57.06
2018-06-25T15:10:18.984Z,56.45
2018-06-25T15:12:44.989Z,57.13
2018-06-25T15:15:10.969Z,56.12
2018-06-25T15:17:36.950Z,56.25
2018-06-25T15:20:02.987Z,56.89
2018-06-25T15:22:28.948Z,56.80
2018-06-25T15:24:54.962Z,56.19
2018-06-25T15:27:20.916Z,55.83
2018-06-25T15:29:47.104Z,56.82
2018-06-25T15:32:13.093Z,56.25
2018-06-25T15:34:39.091Z,56.62
2018-06-25T15:37:05.053Z,56.50
2018-06-25T15:39:31.100Z,56.91
2018-06-25T15:41:57.082Z,56.93
2018-06-25T15:44:23.081Z,55.92
2018-06-25T15:46:49.153Z,55.72
2018-06-25T15:49:15.144Z,56.19
2018-06-25T15:51:41.140Z,55.99
2018-06-25T15:54:07.134Z,56.30
2018-06-25T15:56:33.116Z,56.69
2018-06-25T15:59:00.127Z,56.82
2018-06-25T16:01:26.128Z,56.00
2018-06-25T16:03:52.148Z,56.41
2018-06-25T16:06:18.146Z,55.96
2018-06-25T16:08:44.122Z,55.68
2018-06-25T16:11:10.129Z,55.96
2018-06-25T16:13:36.097Z,56.05
2018-06-25T16:16:02.086Z,56.44
2018-06-25T16:18:28.071Z,55.74
2018-06-25T16:20:55.932Z,55.15
2018-06-25T16:23:22.682Z,55.47
2018-06-25T16:25:49.222Z,56.11
2018-06-25T16:28:15.762Z,56.93
2018-06-25T16:30:42.303Z,56.58
2018-06-25T16:33:08.287Z,56.62
2018-06-25T16:35:34.265Z,56.67
2018-06-25T16:38:00.221Z,57.09
2018-06-25T16:40:26.215Z,56.15
2018-06-25T16:45:18.049Z,56.13
2018-06-25T16:50:09.787Z,56.11
2018-06-25T16:52:35.775Z,56.13
2018-06-25T16:55:01.741Z,55.93
2018-06-25T16:57:27.730Z,55.96
2018-06-25T16:59:53.745Z,55.69
2018-06-25T17:02:19.743Z,56.41
2018-06-25T17:07:11.533Z,55.13
2018-06-25T17:09:37.531Z,55.76
2018-06-25T17:12:03.512Z,56.23
2018-06-25T17:14:29.566Z,55.93
2018-06-25T17:16:55.540Z,56.33
2018-06-25T17:19:21.568Z,55.55
2018-06-25T17:21:48.612Z,55.72
2018-06-25T17:24:14.607Z,55.29
2018-06-25T17:26:40.587Z,56.16
2018-06-25T17:29:06.584Z,55.00
2018-06-25T17:31:37.232Z,56.10
2018-06-25T17:34:03.211Z,54.86
2018-06-25T17:36:29.288Z,55.70
2018-06-25T17:38:55.276Z,55.92
2018-06-25T17:41:21.247Z,55.14
2018-06-25T17:43:52.912Z,55.55
2018-06-25T17:46:18.890Z,55.28
2018-06-25T17:48:44.859Z,55.82
2018-06-25T17:51:10.866Z,55.95
2018-06-25T17:53:36.951Z,55.95
2018-06-25T17:56:02.932Z,55.31
2018-06-25T17:58:28.928Z,55.72
2018-06-25T18:00:54.893Z,55.82
2018-06-25T18:03:20.889Z,55.73
2018-06-25T18:05:46.872Z,54.94
2018-06-25T18:08:12.845Z,55.57
2018-06-25T18:10:38.827Z,55.31
2018-06-25T18:13:04.836Z,56.12
2018-06-25T18:15:30.796Z,55.61
2018-06-25T18:17:56.805Z,55.15
2018-06-25T18:20:22.778Z,55.31
2018-06-25T18:22:48.752Z,55.75
2018-06-25T18:25:14.789Z,54.72
2018-06-25T18:27:40.766Z,55.45
2018-06-25T18:30:06.732Z,54.91
2018-06-25T18:32:32.796Z,55.69
2018-06-25T18:34:58.790Z,55.35
2018-06-25T18:37:24.772Z,55.81
2018-06-25T18:39:50.724Z,54.81
2018-06-25T18:42:16.732Z,55.13
2018-06-25T18:44:42.792Z,55.98
2018-06-25T18:47:08.741Z,55.04
2018-06-25T18:49:34.723Z,55.09
2018-06-25T18:52:00.720Z,55.71
2018-06-25T18:54:26.704Z,55.15
2018-06-25T18:56:52.751Z,54.80
2018-06-25T18:59:18.724Z,54.57
2018-06-25T19:01:44.687Z,54.75
2018-06-25T19:04:10.655Z,55.51
2018-06-25T19:06:36.645Z,54.83
2018-06-25T19:09:02.665Z,55.33
2018-06-25T19:11:28.634Z,54.76
2018-06-25T19:13:54.718Z,54.89
2018-06-25T19:16:20.677Z,54.30
2018-06-25T19:18:46.677Z,54.19
2018-06-25T19:21:12.631Z,54.06
2018-06-25T19:23:38.657Z,54.94
2018-06-25T19:26:04.618Z,54.34
2018-06-25T19:28:30.592Z,54.89
2018-06-25T19:30:56.569Z,55.32
2018-06-25T19:33:22.532Z,54.71
2018-06-25T19:35:48.541Z,56.00
2018-06-25T19:38:14.519Z,55.34
2018-06-25T19:40:40.507Z,54.55
2018-06-25T19:45:34.346Z,55.03
2018-06-25T19:48:00.337Z,55.30
2018-06-25T19:50:26.328Z,56.22
2018-06-25T19:52:52.318Z,55.53
2018-06-25T19:55:18.288Z,55.81
2018-06-25T19:57:44.268Z,56.01
2018-06-25T20:00:10.225Z,56.57
2018-06-25T20:02:36.240Z,56.39
2018-06-25T20:05:02.226Z,56.64
2018-06-25T20:07:28.249Z,56.69
2018-06-25T20:09:54.217Z,56.64
2018-06-25T20:12:20.189Z,56.19
2018-06-25T20:14:46.275Z,55.94
2018-06-25T20:17:15.416Z,55.83
2018-06-25T20:19:41.475Z,56.14
2018-06-25T20:22:07.413Z,56.89
2018-06-25T20:24:33.369Z,56.37
2018-06-25T20:26:59.421Z,56.89
2018-06-25T20:29:25.383Z,57.17
2018-06-25T20:31:51.345Z,57.12
2018-06-25T20:34:17.310Z,56.53
2018-06-25T20:36:43.297Z,56.69
2018-06-25T20:39:09.315Z,56.50
2018-06-25T20:41:35.280Z,57.08
2018-06-25T20:44:01.258Z,56.64
2018-06-25T20:48:53.095Z,55.37
2018-06-25T20:51:21.150Z,55.36
2018-06-25T20:53:47.132Z,55.75
2018-06-25T20:56:13.122Z,55.26
2018-06-25T20:58:39.071Z,55.62
2018-06-25T21:01:05.042Z,55.27
2018-06-25T21:03:31.059Z,55.01
2018-06-25T21:05:57.045Z,54.19
2018-06-25T21:08:23.006Z,54.07
2018-06-25T21:10:48.960Z,54.36
2018-06-25T21:13:14.950Z,54.92
2018-06-25T21:15:40.934Z,53.70
2018-06-25T21:18:06.926Z,53.47
2018-06-25T21:20:38.003Z,53.91
2018-06-25T21:25:35.786Z,53.57
2018-06-25T21:28:03.765Z,53.64
2018-06-25T21:30:29.731Z,54.08
2018-06-25T21:32:55.697Z,52.58
2018-06-25T21:35:21.657Z,53.61
2018-06-25T21:37:47.629Z,53.82
2018-06-25T21:40:13.604Z,53.89
2018-06-25T21:42:40.663Z,54.85
2018-06-25T21:45:07.691Z,54.62
2018-06-25T21:47:33.672Z,55.12
2018-06-25T21:49:59.629Z,55.09
2018-06-25T21:52:30.493Z,54.83
2018-06-25T21:54:56.489Z,54.88
2018-06-25T21:57:22.445Z,54.49
2018-06-25T21:59:48.429Z,54.58
2018-06-25T22:02:14.408Z,55.14
2018-06-25T22:04:40.474Z,55.29
2018-06-25T22:07:06.459Z,54.61
2018-06-25T22:09:32.438Z,54.79
2018-06-25T22:11:58.419Z,55.18
2018-06-25T22:14:24.409Z,54.66
2018-06-25T22:16:50.420Z,55.39
2018-06-25T22:19:16.369Z,55.00
2018-06-25T22:21:42.343Z,55.28
2018-06-25T22:24:08.399Z,54.33
2018-06-25T22:26:34.388Z,54.41
2018-06-25T22:29:00.588Z,54.48
2018-06-25T22:31:28.605Z,55.01
2018-06-25T22:33:54.589Z,54.74
2018-06-25T22:36:20.543Z,55.24
2018-06-25T22:38:46.527Z,54.45
2018-06-25T22:41:12.492Z,53.73
2018-06-25T22:43:38.487Z,55.17
2018-06-25T22:46:04.475Z,54.25
2018-06-25T22:48:30.453Z,54.67
2018-06-25T22:50:56.442Z,55.33
2018-06-25T22:53:22.394Z,55.60
2018-06-25T22:55:48.353Z,55.03
2018-06-25T22:58:14.368Z,55.60
2018-06-25T23:00:40.339Z,55.73
2018-06-25T23:03:06.341Z,55.41
2018-06-25T23:05:32.308Z,55.11
2018-06-25T23:07:58.266Z,55.96
2018-06-25T23:10:24.234Z,55.68
2018-06-25T23:12:50.230Z,55.49
2018-06-25T23:15:16.212Z,55.71
2018-06-25T23:17:42.244Z,55.66
2018-06-25T23:20:08.291Z,55.96
2018-06-25T23:22:34.244Z,55.52
2018-06-25T23:25:00.218Z,55.88
2018-06-25T23:27:26.262Z,56.38
2018-06-25T23:29:52.234Z,56.16
2018-06-25T23:32:18.217Z,55.22
2018-06-25T23:34:44.202Z,55.92
2018-06-25T23:37:10.215Z,56.12
2018-06-25T23:39:36.193Z,56.33
2018-06-25T23:42:02.160Z,55.43
2018-06-25T23:44:28.145Z,56.02
2018-06-25T23:46:54.094Z,56.31
2018-06-25T23:49:20.057Z,56.29
2018-06-25T23:51:46.041Z,56.13
2018-06-25T23:54:12.036Z,56.53
2018-06-25T23:56:38.023Z,56.80
2018-06-25T23:59:04.021Z,56.29
